sensor_id;sensor_type;location;lat;lon;timestamp;temperature;humidity
12268;DHT22;6196;48.398;11.736;2022-12-07T00:01:36;3.20;99.90
12268;DHT22;6196;48.398;11.736;2022-12-07T00:04:09;3.20;99.90
12268;DHT22;6196;48.398;11.736;2022-12-07T00:06:40;3.20;99.90
12268;DHT22;6196;48.398;11.736;2022-12-07T00:09:11;3.20;99.90
12268;DHT22;6196;48.398;11.736;2022-12-07T00:11:39;3.10;99.90
12268;DHT22;6196;48.398;11.736;2022-12-07T00:14:11;3.10;99.90
12268;DHT22;6196;48.398;11.736;2022-12-07T00:16:39;3.10;99.90
12268;DHT22;6196;48.398;11.736;2022-12-07T00:19:06;3.10;99.90
12268;DHT22;6196;48.398;11.736;2022-12-07T00:21:35;3.10;99.90
12268;DHT22;6196;48.398;11.736;2022-12-07T00:24:03;3.10;99.90
12268;DHT22;6196;48.398;11.736;2022-12-07T00:26:39;3.00;99.90
12268;DHT22;6196;48.398;11.736;2022-12-07T00:29:41;3.00;99.90
12268;DHT22;6196;48.398;11.736;2022-12-07T00:32:00;3.10;99.90
12268;DHT22;6196;48.398;11.736;2022-12-07T00:34:27;3.10;99.90
12268;DHT22;6196;48.398;11.736;2022-12-07T00:36:54;3.10;99.90
12268;DHT22;6196;48.398;11.736;2022-12-07T00:39:21;3.10;99.90
12268;DHT22;6196;48.398;11.736;2022-12-07T00:41:47;3.10;99.90
12268;DHT22;6196;48.398;11.736;2022-12-07T00:44:14;3.00;99.90
12268;DHT22;6196;48.398;11.736;2022-12-07T00:46:41;3.00;99.90
12268;DHT22;6196;48.398;11.736;2022-12-07T00:49:08;3.00;99.90
12268;DHT22;6196;48.398;11.736;2022-12-07T00:51:35;3.00;99.90
12268;DHT22;6196;48.398;11.736;2022-12-07T00:54:02;3.00;99.90
12268;DHT22;6196;48.398;11.736;2022-12-07T00:56:29;3.00;99.90
12268;DHT22;6196;48.398;11.736;2022-12-07T00:59:00;3.00;99.90
12268;DHT22;6196;48.398;11.736;2022-12-07T01:01:30;3.00;99.90
12268;DHT22;6196;48.398;11.736;2022-12-07T01:03:59;3.00;99.90
12268;DHT22;6196;48.398;11.736;2022-12-07T01:06:28;3.00;99.90
12268;DHT22;6196;48.398;11.736;2022-12-07T01:08:55;2.90;99.90
12268;DHT22;6196;48.398;11.736;2022-12-07T01:11:28;2.90;99.90
12268;DHT22;6196;48.398;11.736;2022-12-07T01:13:57;2.90;99.90
12268;DHT22;6196;48.398;11.736;2022-12-07T01:16:27;2.90;99.90
12268;DHT22;6196;48.398;11.736;2022-12-07T01:18:56;2.80;99.90
12268;DHT22;6196;48.398;11.736;2022-12-07T01:21:26;2.90;99.90
12268;DHT22;6196;48.398;11.736;2022-12-07T01:23:54;2.80;99.90
12268;DHT22;6196;48.398;11.736;2022-12-07T01:26:22;2.80;99.90
12268;DHT22;6196;48.398;11.736;2022-12-07T01:28:51;2.90;99.90
12268;DHT22;6196;48.398;11.736;2022-12-07T01:31:20;2.80;99.90
12268;DHT22;6196;48.398;11.736;2022-12-07T01:33:51;2.80;99.90
12268;DHT22;6196;48.398;11.736;2022-12-07T01:36:34;2.80;99.90
12268;DHT22;6196;48.398;11.736;2022-12-07T01:39:06;2.80;99.90
12268;DHT22;6196;48.398;11.736;2022-12-07T01:41:36;2.90;99.90
12268;DHT22;6196;48.398;11.736;2022-12-07T01:44:27;2.90;99.90
12268;DHT22;6196;48.398;11.736;2022-12-07T01:47:01;2.80;99.90
12268;DHT22;6196;48.398;11.736;2022-12-07T01:49:47;2.80;99.90
12268;DHT22;6196;48.398;11.736;2022-12-07T01:52:27;2.80;99.90
12268;DHT22;6196;48.398;11.736;2022-12-07T01:55:00;2.80;99.90
12268;DHT22;6196;48.398;11.736;2022-12-07T01:57:32;2.70;99.90
12268;DHT22;6196;48.398;11.736;2022-12-07T02:00:00;2.70;99.90
12268;DHT22;6196;48.398;11.736;2022-12-07T02:02:34;2.70;99.90
12268;DHT22;6196;48.398;11.736;2022-12-07T02:05:08;2.80;99.90
12268;DHT22;6196;48.398;11.736;2022-12-07T02:07:37;2.80;99.90
12268;DHT22;6196;48.398;11.736;2022-12-07T02:12:49;2.70;99.90
12268;DHT22;6196;48.398;11.736;2022-12-07T02:15:33;2.60;99.90
12268;DHT22;6196;48.398;11.736;2022-12-07T02:18:35;2.60;99.90
12268;DHT22;6196;48.398;11.736;2022-12-07T02:21:39;2.60;99.90
12268;DHT22;6196;48.398;11.736;2022-12-07T02:24:48;2.60;99.90
12268;DHT22;6196;48.398;11.736;2022-12-07T02:30:20;2.70;99.90
12268;DHT22;6196;48.398;11.736;2022-12-07T02:32:53;2.70;99.90
12268;DHT22;6196;48.398;11.736;2022-12-07T02:38:55;2.70;99.90
12268;DHT22;6196;48.398;11.736;2022-12-07T02:41:24;2.70;99.90
12268;DHT22;6196;48.398;11.736;2022-12-07T02:44:02;2.60;99.90
12268;DHT22;6196;48.398;11.736;2022-12-07T02:46:36;2.70;99.90
12268;DHT22;6196;48.398;11.736;2022-12-07T02:49:05;2.70;99.90
12268;DHT22;6196;48.398;11.736;2022-12-07T02:51:33;2.60;99.90
12268;DHT22;6196;48.398;11.736;2022-12-07T02:54:00;2.60;99.90
12268;DHT22;6196;48.398;11.736;2022-12-07T02:56:35;2.50;99.90
12268;DHT22;6196;48.398;11.736;2022-12-07T03:05:13;2.60;99.90
12268;DHT22;6196;48.398;11.736;2022-12-07T03:13:28;2.50;99.90
12268;DHT22;6196;48.398;11.736;2022-12-07T03:17:16;2.50;99.90
12268;DHT22;6196;48.398;11.736;2022-12-07T03:19:37;2.50;99.90
12268;DHT22;6196;48.398;11.736;2022-12-07T03:22:09;2.60;99.90
12268;DHT22;6196;48.398;11.736;2022-12-07T03:24:51;2.60;99.90
12268;DHT22;6196;48.398;11.736;2022-12-07T03:27:52;2.60;99.90
12268;DHT22;6196;48.398;11.736;2022-12-07T03:30:33;2.60;99.90
12268;DHT22;6196;48.398;11.736;2022-12-07T03:36:04;2.50;99.90
12268;DHT22;6196;48.398;11.736;2022-12-07T03:38:37;2.60;99.90
12268;DHT22;6196;48.398;11.736;2022-12-07T03:41:11;2.60;99.90
12268;DHT22;6196;48.398;11.736;2022-12-07T03:43:50;2.50;99.90
12268;DHT22;6196;48.398;11.736;2022-12-07T03:52:24;2.50;99.90
12268;DHT22;6196;48.398;11.736;2022-12-07T03:54:59;2.50;99.90
12268;DHT22;6196;48.398;11.736;2022-12-07T03:57:28;2.60;99.90
12268;DHT22;6196;48.398;11.736;2022-12-07T03:59:57;2.60;99.90
12268;DHT22;6196;48.398;11.736;2022-12-07T04:02:27;2.60;99.90
12268;DHT22;6196;48.398;11.736;2022-12-07T04:04:55;2.60;99.90
12268;DHT22;6196;48.398;11.736;2022-12-07T04:07:23;2.60;99.90
12268;DHT22;6196;48.398;11.736;2022-12-07T04:09:49;2.50;99.90
12268;DHT22;6196;48.398;11.736;2022-12-07T04:12:16;2.60;99.90
12268;DHT22;6196;48.398;11.736;2022-12-07T04:14:43;2.60;99.90
12268;DHT22;6196;48.398;11.736;2022-12-07T04:17:10;2.60;99.90
12268;DHT22;6196;48.398;11.736;2022-12-07T04:19:37;2.60;99.90
12268;DHT22;6196;48.398;11.736;2022-12-07T04:22:04;2.60;99.90
12268;DHT22;6196;48.398;11.736;2022-12-07T04:24:32;2.60;99.90
12268;DHT22;6196;48.398;11.736;2022-12-07T04:27:00;2.60;99.90
12268;DHT22;6196;48.398;11.736;2022-12-07T04:29:27;2.60;99.90
12268;DHT22;6196;48.398;11.736;2022-12-07T04:31:54;2.60;99.90
12268;DHT22;6196;48.398;11.736;2022-12-07T04:34:21;2.50;99.90
12268;DHT22;6196;48.398;11.736;2022-12-07T04:36:48;2.40;99.90
12268;DHT22;6196;48.398;11.736;2022-12-07T04:39:25;2.40;99.90
12268;DHT22;6196;48.398;11.736;2022-12-07T04:41:54;2.50;99.90
12268;DHT22;6196;48.398;11.736;2022-12-07T04:44:23;2.50;99.90
12268;DHT22;6196;48.398;11.736;2022-12-07T04:46:51;2.40;99.90
12268;DHT22;6196;48.398;11.736;2022-12-07T04:49:19;2.40;99.90
12268;DHT22;6196;48.398;11.736;2022-12-07T04:51:46;2.40;99.90
12268;DHT22;6196;48.398;11.736;2022-12-07T04:54:14;2.40;99.90
12268;DHT22;6196;48.398;11.736;2022-12-07T04:56:41;2.50;99.90
12268;DHT22;6196;48.398;11.736;2022-12-07T04:59:10;2.50;99.90
12268;DHT22;6196;48.398;11.736;2022-12-07T05:01:38;2.50;99.90
12268;DHT22;6196;48.398;11.736;2022-12-07T05:04:05;2.40;99.90
12268;DHT22;6196;48.398;11.736;2022-12-07T05:06:32;2.40;99.90
12268;DHT22;6196;48.398;11.736;2022-12-07T05:08:59;2.40;99.90
12268;DHT22;6196;48.398;11.736;2022-12-07T05:11:26;2.50;99.90
12268;DHT22;6196;48.398;11.736;2022-12-07T05:14:18;2.50;99.90
12268;DHT22;6196;48.398;11.736;2022-12-07T05:16:48;2.50;99.90
12268;DHT22;6196;48.398;11.736;2022-12-07T05:19:17;2.50;99.90
12268;DHT22;6196;48.398;11.736;2022-12-07T05:21:45;2.50;99.90
12268;DHT22;6196;48.398;11.736;2022-12-07T05:24:14;2.50;99.90
12268;DHT22;6196;48.398;11.736;2022-12-07T05:26:42;2.50;99.90
12268;DHT22;6196;48.398;11.736;2022-12-07T05:29:14;2.50;99.90
12268;DHT22;6196;48.398;11.736;2022-12-07T05:31:42;2.50;99.90
12268;DHT22;6196;48.398;11.736;2022-12-07T05:34:10;2.50;99.90
12268;DHT22;6196;48.398;11.736;2022-12-07T05:36:37;2.50;99.90
12268;DHT22;6196;48.398;11.736;2022-12-07T05:39:04;2.50;99.90
12268;DHT22;6196;48.398;11.736;2022-12-07T05:41:31;2.50;99.90
12268;DHT22;6196;48.398;11.736;2022-12-07T05:44:16;2.50;99.90
12268;DHT22;6196;48.398;11.736;2022-12-07T05:46:43;2.50;99.90
12268;DHT22;6196;48.398;11.736;2022-12-07T05:49:10;2.50;99.90
12268;DHT22;6196;48.398;11.736;2022-12-07T05:51:37;2.50;99.90
12268;DHT22;6196;48.398;11.736;2022-12-07T05:54:04;2.50;99.90
12268;DHT22;6196;48.398;11.736;2022-12-07T05:56:30;2.50;99.90
12268;DHT22;6196;48.398;11.736;2022-12-07T05:58:57;2.50;99.90
12268;DHT22;6196;48.398;11.736;2022-12-07T06:01:43;2.60;99.90
12268;DHT22;6196;48.398;11.736;2022-12-07T06:04:10;2.50;99.90
12268;DHT22;6196;48.398;11.736;2022-12-07T06:06:36;2.60;99.90
12268;DHT22;6196;48.398;11.736;2022-12-07T06:09:04;2.50;99.90
12268;DHT22;6196;48.398;11.736;2022-12-07T06:11:31;2.50;99.90
12268;DHT22;6196;48.398;11.736;2022-12-07T06:14:16;2.40;99.90
12268;DHT22;6196;48.398;11.736;2022-12-07T06:16:43;2.40;99.90
12268;DHT22;6196;48.398;11.736;2022-12-07T06:19:10;2.30;99.90
12268;DHT22;6196;48.398;11.736;2022-12-07T06:21:37;2.40;99.90
12268;DHT22;6196;48.398;11.736;2022-12-07T06:24:04;2.40;99.90
12268;DHT22;6196;48.398;11.736;2022-12-07T06:26:31;2.40;99.90
12268;DHT22;6196;48.398;11.736;2022-12-07T06:28:58;2.30;99.90
12268;DHT22;6196;48.398;11.736;2022-12-07T06:31:25;2.20;99.90
12268;DHT22;6196;48.398;11.736;2022-12-07T06:33:56;2.20;99.90
12268;DHT22;6196;48.398;11.736;2022-12-07T06:36:27;2.10;99.90
12268;DHT22;6196;48.398;11.736;2022-12-07T06:38:54;2.10;99.90
12268;DHT22;6196;48.398;11.736;2022-12-07T06:41:21;2.10;99.90
12268;DHT22;6196;48.398;11.736;2022-12-07T06:43:48;2.00;99.90
12268;DHT22;6196;48.398;11.736;2022-12-07T06:46:21;2.00;99.90
12268;DHT22;6196;48.398;11.736;2022-12-07T06:48:49;2.00;99.90
12268;DHT22;6196;48.398;11.736;2022-12-07T06:51:16;2.00;99.90
12268;DHT22;6196;48.398;11.736;2022-12-07T06:53:43;2.00;99.90
12268;DHT22;6196;48.398;11.736;2022-12-07T06:56:10;1.90;99.90
12268;DHT22;6196;48.398;11.736;2022-12-07T06:58:36;1.80;99.90
12268;DHT22;6196;48.398;11.736;2022-12-07T07:01:09;1.80;99.90
12268;DHT22;6196;48.398;11.736;2022-12-07T07:03:37;1.80;99.90
12268;DHT22;6196;48.398;11.736;2022-12-07T07:06:05;1.80;99.90
12268;DHT22;6196;48.398;11.736;2022-12-07T07:08:33;1.80;99.90
12268;DHT22;6196;48.398;11.736;2022-12-07T07:11:01;1.90;99.90
12268;DHT22;6196;48.398;11.736;2022-12-07T07:13:28;1.80;99.90
12268;DHT22;6196;48.398;11.736;2022-12-07T07:15:55;1.70;99.90
12268;DHT22;6196;48.398;11.736;2022-12-07T07:18:22;1.70;99.90
12268;DHT22;6196;48.398;11.736;2022-12-07T07:20:50;1.80;99.90
12268;DHT22;6196;48.398;11.736;2022-12-07T07:23:18;1.80;99.90
12268;DHT22;6196;48.398;11.736;2022-12-07T07:25:45;1.80;99.90
12268;DHT22;6196;48.398;11.736;2022-12-07T07:28:13;1.80;99.90
12268;DHT22;6196;48.398;11.736;2022-12-07T07:30:41;1.90;99.90
12268;DHT22;6196;48.398;11.736;2022-12-07T07:33:10;1.90;99.90
12268;DHT22;6196;48.398;11.736;2022-12-07T07:35:37;2.00;99.90
12268;DHT22;6196;48.398;11.736;2022-12-07T07:38:06;2.00;99.90
12268;DHT22;6196;48.398;11.736;2022-12-07T07:40:34;2.00;99.90
12268;DHT22;6196;48.398;11.736;2022-12-07T07:43:02;2.10;99.90
12268;DHT22;6196;48.398;11.736;2022-12-07T07:45:28;2.10;99.90
12268;DHT22;6196;48.398;11.736;2022-12-07T07:47:56;2.10;99.90
12268;DHT22;6196;48.398;11.736;2022-12-07T07:50:22;2.20;99.90
12268;DHT22;6196;48.398;11.736;2022-12-07T07:52:50;2.20;99.90
12268;DHT22;6196;48.398;11.736;2022-12-07T07:55:17;2.20;99.90
12268;DHT22;6196;48.398;11.736;2022-12-07T07:57:44;2.20;99.90
12268;DHT22;6196;48.398;11.736;2022-12-07T08:00:20;2.20;99.90
12268;DHT22;6196;48.398;11.736;2022-12-07T08:02:47;2.20;99.90
12268;DHT22;6196;48.398;11.736;2022-12-07T08:05:16;2.20;99.90
12268;DHT22;6196;48.398;11.736;2022-12-07T08:07:43;2.20;99.90
12268;DHT22;6196;48.398;11.736;2022-12-07T08:10:12;2.20;99.90
12268;DHT22;6196;48.398;11.736;2022-12-07T08:12:41;2.20;99.90
12268;DHT22;6196;48.398;11.736;2022-12-07T08:15:28;2.20;99.90
12268;DHT22;6196;48.398;11.736;2022-12-07T08:17:57;2.20;99.90
12268;DHT22;6196;48.398;11.736;2022-12-07T08:20:24;2.30;99.90
12268;DHT22;6196;48.398;11.736;2022-12-07T08:22:50;2.20;99.90
12268;DHT22;6196;48.398;11.736;2022-12-07T08:25:18;2.20;99.90
12268;DHT22;6196;48.398;11.736;2022-12-07T08:27:44;2.30;99.90
12268;DHT22;6196;48.398;11.736;2022-12-07T08:30:11;2.40;99.90
12268;DHT22;6196;48.398;11.736;2022-12-07T08:32:39;2.50;99.90
12268;DHT22;6196;48.398;11.736;2022-12-07T08:35:06;2.60;99.90
12268;DHT22;6196;48.398;11.736;2022-12-07T08:37:33;2.60;99.90
12268;DHT22;6196;48.398;11.736;2022-12-07T08:40:00;2.70;99.90
12268;DHT22;6196;48.398;11.736;2022-12-07T08:42:28;2.80;99.90
12268;DHT22;6196;48.398;11.736;2022-12-07T08:44:57;2.80;99.90
12268;DHT22;6196;48.398;11.736;2022-12-07T08:47:24;2.90;99.90
12268;DHT22;6196;48.398;11.736;2022-12-07T08:49:52;2.90;99.90
12268;DHT22;6196;48.398;11.736;2022-12-07T08:52:20;3.50;99.90
12268;DHT22;6196;48.398;11.736;2022-12-07T08:54:47;4.50;99.90
12268;DHT22;6196;48.398;11.736;2022-12-07T08:57:14;5.60;99.90
12268;DHT22;6196;48.398;11.736;2022-12-07T08:59:40;6.30;99.90
12268;DHT22;6196;48.398;11.736;2022-12-07T09:02:07;7.30;99.90
12268;DHT22;6196;48.398;11.736;2022-12-07T09:04:34;8.30;99.90
12268;DHT22;6196;48.398;11.736;2022-12-07T09:07:01;7.60;99.90
12268;DHT22;6196;48.398;11.736;2022-12-07T09:09:28;7.70;99.90
12268;DHT22;6196;48.398;11.736;2022-12-07T09:11:56;7.50;99.90
12268;DHT22;6196;48.398;11.736;2022-12-07T09:14:22;6.90;99.90
12268;DHT22;6196;48.398;11.736;2022-12-07T09:16:49;6.50;99.90
12268;DHT22;6196;48.398;11.736;2022-12-07T09:19:16;6.40;99.90
12268;DHT22;6196;48.398;11.736;2022-12-07T09:21:43;6.70;99.90
12268;DHT22;6196;48.398;11.736;2022-12-07T09:24:12;6.90;99.90
12268;DHT22;6196;48.398;11.736;2022-12-07T09:26:39;6.80;99.90
12268;DHT22;6196;48.398;11.736;2022-12-07T09:29:07;6.60;99.90
12268;DHT22;6196;48.398;11.736;2022-12-07T09:31:36;6.30;99.90
12268;DHT22;6196;48.398;11.736;2022-12-07T09:34:03;6.20;99.90
12268;DHT22;6196;48.398;11.736;2022-12-07T09:36:32;6.30;99.90
12268;DHT22;6196;48.398;11.736;2022-12-07T09:39:00;5.80;99.90
12268;DHT22;6196;48.398;11.736;2022-12-07T09:41:27;5.30;99.90
12268;DHT22;6196;48.398;11.736;2022-12-07T09:44:12;5.40;99.90
12268;DHT22;6196;48.398;11.736;2022-12-07T09:46:43;5.30;99.90
12268;DHT22;6196;48.398;11.736;2022-12-07T09:49:17;5.30;99.90
12268;DHT22;6196;48.398;11.736;2022-12-07T09:51:47;5.30;99.90
12268;DHT22;6196;48.398;11.736;2022-12-07T09:54:16;5.20;99.90
12268;DHT22;6196;48.398;11.736;2022-12-07T09:56:44;5.10;99.90
12268;DHT22;6196;48.398;11.736;2022-12-07T09:59:16;5.20;99.90
12268;DHT22;6196;48.398;11.736;2022-12-07T10:01:46;5.20;99.90
12268;DHT22;6196;48.398;11.736;2022-12-07T10:04:18;5.10;99.90
12268;DHT22;6196;48.398;11.736;2022-12-07T10:06:48;4.90;99.90
12268;DHT22;6196;48.398;11.736;2022-12-07T10:09:19;4.80;99.90
12268;DHT22;6196;48.398;11.736;2022-12-07T10:12:08;4.80;99.90
12268;DHT22;6196;48.398;11.736;2022-12-07T10:17:37;5.70;99.90
12268;DHT22;6196;48.398;11.736;2022-12-07T10:20:21;7.20;99.90
12268;DHT22;6196;48.398;11.736;2022-12-07T10:25:34;8.90;99.90
12268;DHT22;6196;48.398;11.736;2022-12-07T10:30:57;9.30;99.90
12268;DHT22;6196;48.398;11.736;2022-12-07T10:33:37;8.60;99.90
12268;DHT22;6196;48.398;11.736;2022-12-07T10:36:26;7.80;99.90
12268;DHT22;6196;48.398;11.736;2022-12-07T10:39:11;6.90;99.90
12268;DHT22;6196;48.398;11.736;2022-12-07T10:42:00;6.00;99.90
12268;DHT22;6196;48.398;11.736;2022-12-07T10:44:30;5.70;99.90
12268;DHT22;6196;48.398;11.736;2022-12-07T10:52:21;5.50;99.90
12268;DHT22;6196;48.398;11.736;2022-12-07T10:58:11;5.80;99.90
12268;DHT22;6196;48.398;11.736;2022-12-07T11:01:02;5.70;99.90
12268;DHT22;6196;48.398;11.736;2022-12-07T11:03:55;5.80;99.90
12268;DHT22;6196;48.398;11.736;2022-12-07T11:06:33;6.20;99.90
12268;DHT22;6196;48.398;11.736;2022-12-07T11:09:29;6.60;99.90
12268;DHT22;6196;48.398;11.736;2022-12-07T11:15:55;6.70;99.90
12268;DHT22;6196;48.398;11.736;2022-12-07T11:18:56;6.60;99.90
12268;DHT22;6196;48.398;11.736;2022-12-07T11:21:39;6.40;99.90
12268;DHT22;6196;48.398;11.736;2022-12-07T11:24:32;6.20;99.90
12268;DHT22;6196;48.398;11.736;2022-12-07T11:38:26;5.90;99.90
12268;DHT22;6196;48.398;11.736;2022-12-07T11:41:02;5.80;99.90
12268;DHT22;6196;48.398;11.736;2022-12-07T11:44:08;5.90;99.90
12268;DHT22;6196;48.398;11.736;2022-12-07T11:46:49;5.90;99.90
12268;DHT22;6196;48.398;11.736;2022-12-07T11:52:47;5.50;99.90
12268;DHT22;6196;48.398;11.736;2022-12-07T11:58:22;5.60;99.90
12268;DHT22;6196;48.398;11.736;2022-12-07T12:01:18;5.70;99.90
12268;DHT22;6196;48.398;11.736;2022-12-07T12:03:57;5.70;99.90
12268;DHT22;6196;48.398;11.736;2022-12-07T12:06:27;5.70;99.90
12268;DHT22;6196;48.398;11.736;2022-12-07T12:08:55;5.70;99.90
12268;DHT22;6196;48.398;11.736;2022-12-07T12:20:46;5.80;99.90
12268;DHT22;6196;48.398;11.736;2022-12-07T12:23:21;5.70;99.90
12268;DHT22;6196;48.398;11.736;2022-12-07T12:26:02;5.70;99.90
12268;DHT22;6196;48.398;11.736;2022-12-07T12:28:48;5.50;99.90
12268;DHT22;6196;48.398;11.736;2022-12-07T12:31:29;5.60;99.90
12268;DHT22;6196;48.398;11.736;2022-12-07T12:34:01;5.50;99.90
12268;DHT22;6196;48.398;11.736;2022-12-07T12:36:48;5.50;99.90
12268;DHT22;6196;48.398;11.736;2022-12-07T12:39:17;5.30;99.90
12268;DHT22;6196;48.398;11.736;2022-12-07T12:51:47;5.60;99.90
12268;DHT22;6196;48.398;11.736;2022-12-07T12:54:24;5.60;99.90
12268;DHT22;6196;48.398;11.736;2022-12-07T12:57:22;5.70;99.90
12268;DHT22;6196;48.398;11.736;2022-12-07T13:07:51;5.20;99.90
12268;DHT22;6196;48.398;11.736;2022-12-07T13:15:49;5.10;99.90
12268;DHT22;6196;48.398;11.736;2022-12-07T13:23:55;5.00;99.90
12268;DHT22;6196;48.398;11.736;2022-12-07T13:29:19;5.00;99.90
12268;DHT22;6196;48.398;11.736;2022-12-07T13:31:47;4.90;99.90
12268;DHT22;6196;48.398;11.736;2022-12-07T13:37:25;4.80;99.90
12268;DHT22;6196;48.398;11.736;2022-12-07T13:39:59;4.70;99.90
12268;DHT22;6196;48.398;11.736;2022-12-07T13:44:57;4.70;99.90
12268;DHT22;6196;48.398;11.736;2022-12-07T13:47:31;4.70;99.90
12268;DHT22;6196;48.398;11.736;2022-12-07T13:50:02;4.60;99.90
12268;DHT22;6196;48.398;11.736;2022-12-07T13:52:55;4.70;99.90
12268;DHT22;6196;48.398;11.736;2022-12-07T13:55:23;4.80;99.90
12268;DHT22;6196;48.398;11.736;2022-12-07T13:57:52;4.80;99.90
12268;DHT22;6196;48.398;11.736;2022-12-07T14:00:21;4.90;99.90
12268;DHT22;6196;48.398;11.736;2022-12-07T14:03:22;4.90;99.90
12268;DHT22;6196;48.398;11.736;2022-12-07T14:06:15;4.90;99.90
12268;DHT22;6196;48.398;11.736;2022-12-07T14:08:44;4.70;99.90
12268;DHT22;6196;48.398;11.736;2022-12-07T14:11:16;4.80;99.90
12268;DHT22;6196;48.398;11.736;2022-12-07T14:13:51;4.80;99.90
12268;DHT22;6196;48.398;11.736;2022-12-07T14:16:35;4.90;99.90
12268;DHT22;6196;48.398;11.736;2022-12-07T14:19:06;5.00;99.90
12268;DHT22;6196;48.398;11.736;2022-12-07T14:22:24;5.00;99.90
12268;DHT22;6196;48.398;11.736;2022-12-07T14:27:48;4.90;99.90
12268;DHT22;6196;48.398;11.736;2022-12-07T14:30:23;4.90;99.90
12268;DHT22;6196;48.398;11.736;2022-12-07T14:32:54;4.80;99.90
12268;DHT22;6196;48.398;11.736;2022-12-07T14:35:24;4.80;99.90
12268;DHT22;6196;48.398;11.736;2022-12-07T14:37:51;4.70;99.90
12268;DHT22;6196;48.398;11.736;2022-12-07T14:40:21;4.70;99.90
12268;DHT22;6196;48.398;11.736;2022-12-07T14:43:09;4.60;99.90
12268;DHT22;6196;48.398;11.736;2022-12-07T14:45:37;4.60;99.90
12268;DHT22;6196;48.398;11.736;2022-12-07T14:48:07;4.50;99.90
12268;DHT22;6196;48.398;11.736;2022-12-07T14:50:57;4.50;99.90
12268;DHT22;6196;48.398;11.736;2022-12-07T14:53:48;4.50;99.90
12268;DHT22;6196;48.398;11.736;2022-12-07T14:56:23;4.50;99.90
12268;DHT22;6196;48.398;11.736;2022-12-07T14:58:51;4.40;99.90
12268;DHT22;6196;48.398;11.736;2022-12-07T15:01:18;4.40;99.90
12268;DHT22;6196;48.398;11.736;2022-12-07T15:03:45;4.30;99.90
12268;DHT22;6196;48.398;11.736;2022-12-07T15:06:16;4.30;99.90
12268;DHT22;6196;48.398;11.736;2022-12-07T15:08:44;4.30;99.90
12268;DHT22;6196;48.398;11.736;2022-12-07T15:11:13;4.20;99.90
12268;DHT22;6196;48.398;11.736;2022-12-07T15:13:40;4.10;99.90
12268;DHT22;6196;48.398;11.736;2022-12-07T15:16:26;4.00;99.90
12268;DHT22;6196;48.398;11.736;2022-12-07T15:18:56;4.00;99.90
12268;DHT22;6196;48.398;11.736;2022-12-07T15:21:43;3.90;99.90
12268;DHT22;6196;48.398;11.736;2022-12-07T15:24:11;3.90;99.90
12268;DHT22;6196;48.398;11.736;2022-12-07T15:26:39;3.90;99.90
12268;DHT22;6196;48.398;11.736;2022-12-07T15:29:07;3.90;99.90
12268;DHT22;6196;48.398;11.736;2022-12-07T15:31:35;3.90;99.90
12268;DHT22;6196;48.398;11.736;2022-12-07T15:34:23;3.90;99.90
12268;DHT22;6196;48.398;11.736;2022-12-07T15:37:01;3.90;99.90
12268;DHT22;6196;48.398;11.736;2022-12-07T15:39:28;3.90;99.90
12268;DHT22;6196;48.398;11.736;2022-12-07T15:41:55;3.90;99.90
12268;DHT22;6196;48.398;11.736;2022-12-07T15:44:22;3.80;99.90
12268;DHT22;6196;48.398;11.736;2022-12-07T15:47:07;3.80;99.90
12268;DHT22;6196;48.398;11.736;2022-12-07T15:49:34;3.80;99.90
12268;DHT22;6196;48.398;11.736;2022-12-07T15:52:01;3.80;99.90
12268;DHT22;6196;48.398;11.736;2022-12-07T15:54:29;3.80;99.90
12268;DHT22;6196;48.398;11.736;2022-12-07T15:56:56;3.80;99.90
12268;DHT22;6196;48.398;11.736;2022-12-07T15:59:23;3.80;99.90
12268;DHT22;6196;48.398;11.736;2022-12-07T16:01:52;3.80;99.90
12268;DHT22;6196;48.398;11.736;2022-12-07T16:04:19;3.80;99.90
12268;DHT22;6196;48.398;11.736;2022-12-07T16:06:46;3.80;99.90
12268;DHT22;6196;48.398;11.736;2022-12-07T16:09:13;3.70;99.90
12268;DHT22;6196;48.398;11.736;2022-12-07T16:11:41;3.60;99.90
12268;DHT22;6196;48.398;11.736;2022-12-07T16:14:08;3.50;99.90
12268;DHT22;6196;48.398;11.736;2022-12-07T16:16:35;3.50;99.90
12268;DHT22;6196;48.398;11.736;2022-12-07T16:19:02;3.50;99.90
12268;DHT22;6196;48.398;11.736;2022-12-07T16:21:29;3.40;99.90
12268;DHT22;6196;48.398;11.736;2022-12-07T16:23:58;3.40;99.90
12268;DHT22;6196;48.398;11.736;2022-12-07T16:26:25;3.40;99.90
12268;DHT22;6196;48.398;11.736;2022-12-07T16:28:53;3.30;99.90
12268;DHT22;6196;48.398;11.736;2022-12-07T16:31:23;3.30;99.90
12268;DHT22;6196;48.398;11.736;2022-12-07T16:33:57;3.30;99.90
12268;DHT22;6196;48.398;11.736;2022-12-07T16:36:25;3.30;99.90
12268;DHT22;6196;48.398;11.736;2022-12-07T16:39:14;3.30;99.90
12268;DHT22;6196;48.398;11.736;2022-12-07T16:41:40;3.30;99.90
12268;DHT22;6196;48.398;11.736;2022-12-07T16:44:10;3.30;99.90
12268;DHT22;6196;48.398;11.736;2022-12-07T16:46:38;3.40;99.90
12268;DHT22;6196;48.398;11.736;2022-12-07T16:49:06;3.30;99.90
12268;DHT22;6196;48.398;11.736;2022-12-07T16:51:33;3.30;99.90
12268;DHT22;6196;48.398;11.736;2022-12-07T16:54:03;3.30;99.90
12268;DHT22;6196;48.398;11.736;2022-12-07T16:56:30;3.30;99.90
12268;DHT22;6196;48.398;11.736;2022-12-07T16:59:00;3.30;99.90
12268;DHT22;6196;48.398;11.736;2022-12-07T17:01:27;3.30;99.90
12268;DHT22;6196;48.398;11.736;2022-12-07T17:03:57;3.30;99.90
12268;DHT22;6196;48.398;11.736;2022-12-07T17:06:27;3.20;99.90
12268;DHT22;6196;48.398;11.736;2022-12-07T17:08:56;3.30;99.90
12268;DHT22;6196;48.398;11.736;2022-12-07T17:11:28;3.20;99.90
12268;DHT22;6196;48.398;11.736;2022-12-07T17:13:57;3.20;99.90
12268;DHT22;6196;48.398;11.736;2022-12-07T17:16:43;3.20;99.90
12268;DHT22;6196;48.398;11.736;2022-12-07T17:19:12;3.20;99.90
12268;DHT22;6196;48.398;11.736;2022-12-07T17:21:41;3.20;99.90
12268;DHT22;6196;48.398;11.736;2022-12-07T17:24:10;3.20;99.90
12268;DHT22;6196;48.398;11.736;2022-12-07T17:26:38;3.20;99.90
12268;DHT22;6196;48.398;11.736;2022-12-07T17:29:06;3.20;99.90
12268;DHT22;6196;48.398;11.736;2022-12-07T17:31:35;3.20;99.90
12268;DHT22;6196;48.398;11.736;2022-12-07T17:34:02;3.20;99.90
12268;DHT22;6196;48.398;11.736;2022-12-07T17:36:30;3.20;99.90
12268;DHT22;6196;48.398;11.736;2022-12-07T17:38:58;3.20;99.90
12268;DHT22;6196;48.398;11.736;2022-12-07T17:41:28;3.20;99.90
12268;DHT22;6196;48.398;11.736;2022-12-07T17:44:16;3.20;99.90
12268;DHT22;6196;48.398;11.736;2022-12-07T17:46:46;3.20;99.90
12268;DHT22;6196;48.398;11.736;2022-12-07T17:49:15;3.20;99.90
12268;DHT22;6196;48.398;11.736;2022-12-07T17:51:42;3.10;99.90
12268;DHT22;6196;48.398;11.736;2022-12-07T17:54:28;3.20;99.90
12268;DHT22;6196;48.398;11.736;2022-12-07T17:56:56;3.20;99.90
12268;DHT22;6196;48.398;11.736;2022-12-07T17:59:23;3.20;99.90
12268;DHT22;6196;48.398;11.736;2022-12-07T18:01:51;3.20;99.90
12268;DHT22;6196;48.398;11.736;2022-12-07T18:04:18;3.20;99.90
12268;DHT22;6196;48.398;11.736;2022-12-07T18:06:45;3.10;99.90
12268;DHT22;6196;48.398;11.736;2022-12-07T18:09:18;3.10;99.90
12268;DHT22;6196;48.398;11.736;2022-12-07T18:11:46;3.10;99.90
12268;DHT22;6196;48.398;11.736;2022-12-07T18:14:13;3.00;99.90